createdAt,value
2022-11-05T00:00:37.920Z,20.33
2022-11-05T00:03:23.783Z,18.38
2022-11-05T00:06:12.563Z,20.08
2022-11-05T00:08:59.541Z,21.92
2022-11-05T00:11:46.666Z,19.80
2022-11-05T00:14:32.736Z,21.63
2022-11-05T00:16:59.515Z,21.45
2022-11-05T00:19:26.257Z,22.90
2022-11-05T00:22:11.726Z,20.75
2022-11-05T00:24:56.962Z,22.23
2022-11-05T00:27:23.829Z,21.10
2022-11-05T00:29:50.659Z,19.00
2022-11-05T00:32:17.464Z,20.75
2022-11-05T00:34:44.367Z,21.88
2022-11-05T00:37:11.135Z,23.52
2022-11-05T00:39:37.979Z,22.42
2022-11-05T00:42:23.452Z,23.13
2022-11-05T00:45:02.397Z,22.45
2022-11-05T00:47:51.859Z,23.10
2022-11-05T00:50:20.735Z,24.40
2022-11-05T00:53:06.582Z,24.55
2022-11-05T00:55:41.995Z,24.23
2022-11-05T00:58:17.688Z,22.42
2022-11-05T01:00:50.272Z,23.05
2022-11-05T01:03:19.951Z,23.13
2022-11-05T01:05:49.370Z,22.10
2022-11-05T01:08:18.231Z,21.75
2022-11-05T01:10:51.298Z,20.35
2022-11-05T01:13:21.084Z,23.15
2022-11-05T01:15:50.907Z,21.35
2022-11-05T01:18:19.413Z,22.15
2022-11-05T01:20:46.576Z,21.73
2022-11-05T01:23:14.199Z,21.25
2022-11-05T01:25:42.442Z,22.75
2022-11-05T01:28:09.974Z,21.95
2022-11-05T01:30:37.707Z,21.35
2022-11-05T01:33:04.670Z,19.98
2022-11-05T01:35:31.651Z,21.30
2022-11-05T01:38:01.422Z,24.08
2022-11-05T01:40:28.328Z,24.17
2022-11-05T01:42:55.177Z,21.52
2022-11-05T01:45:25.049Z,26.13
2022-11-05T01:47:51.869Z,23.42
2022-11-05T01:50:30.692Z,22.15
2022-11-05T01:53:12.933Z,24.30
2022-11-05T01:55:55.955Z,25.02
2022-11-05T01:58:26.377Z,23.77
2022-11-05T02:00:54.263Z,24.85
2022-11-05T02:03:21.415Z,26.52
2022-11-05T02:05:49.991Z,25.63
2022-11-05T02:08:27.340Z,26.85
2022-11-05T02:10:54.553Z,27.05
2022-11-05T02:13:21.435Z,28.90
2022-11-05T02:16:13.144Z,25.83
2022-11-05T02:18:58.592Z,28.98
2022-11-05T02:21:34.697Z,26.80
2022-11-05T02:24:35.556Z,28.10
2022-11-05T02:27:37.997Z,26.88
2022-11-05T02:30:28.238Z,26.83
2022-11-05T02:33:11.234Z,29.20
2022-11-05T02:35:47.347Z,29.40
2022-11-05T02:38:35.835Z,27.50
2022-11-05T02:41:14.409Z,25.90
2022-11-05T02:44:13.266Z,29.40
2022-11-05T02:46:57.998Z,27.17
2022-11-05T02:50:20.191Z,27.75
2022-11-05T02:52:57.654Z,30.60
2022-11-05T02:55:51.490Z,29.40
2022-11-05T02:58:18.317Z,33.55
2022-11-05T03:00:50.041Z,27.42
2022-11-05T03:03:40.287Z,30.70
2022-11-05T03:25:58.214Z,35.83
2022-11-05T03:28:30.248Z,38.65
2022-11-05T03:30:59.341Z,33.70
2022-11-05T03:33:30.087Z,39.65
2022-11-05T03:36:00.963Z,35.58
2022-11-05T03:38:34.746Z,39.40
2022-11-05T03:41:06.900Z,40.53
2022-11-05T03:43:38.310Z,40.58
2022-11-05T03:46:12.466Z,39.88
2022-11-05T03:51:12.705Z,42.55
2022-11-05T03:53:55.774Z,44.17
2022-11-05T03:56:37.885Z,40.58
2022-11-05T03:59:07.657Z,43.13
2022-11-05T04:01:36.993Z,41.70
2022-11-05T04:04:06.425Z,43.38
2022-11-05T04:06:51.755Z,39.35
2022-11-05T04:09:37.092Z,42.40
2022-11-05T04:12:22.774Z,40.85
2022-11-05T04:14:49.610Z,40.42
2022-11-05T04:17:16.501Z,43.22
2022-11-05T04:20:03.581Z,43.63
2022-11-05T04:22:51.420Z,45.13
2022-11-05T04:25:20.274Z,44.13
2022-11-05T04:27:47.745Z,44.85
2022-11-05T04:30:19.754Z,45.00
2022-11-05T04:33:07.010Z,45.20
2022-11-05T04:35:39.844Z,45.90
2022-11-05T04:38:09.448Z,40.30
2022-11-05T04:40:37.061Z,44.33
2022-11-05T04:43:04.440Z,48.83
2022-11-05T04:45:34.549Z,45.83
2022-11-05T04:48:02.562Z,43.15
2022-11-05T04:50:29.817Z,43.75
2022-11-05T04:52:56.734Z,43.58
2022-11-05T04:55:23.832Z,49.67
2022-11-05T04:57:52.038Z,49.45
2022-11-05T05:00:20.850Z,47.05
2022-11-05T05:02:49.024Z,46.83
2022-11-05T05:05:16.396Z,48.25
2022-11-05T05:07:43.374Z,46.75
2022-11-05T05:10:11.386Z,44.45
2022-11-05T05:12:38.265Z,44.00
2022-11-05T05:15:05.492Z,45.97
2022-11-05T05:17:32.339Z,42.58
2022-11-05T05:20:17.691Z,41.30
2022-11-05T05:22:44.522Z,36.33
2022-11-05T05:25:11.342Z,37.47
2022-11-05T05:27:38.152Z,36.45
2022-11-05T05:30:05.387Z,34.55
2022-11-05T05:32:32.220Z,34.10
2022-11-05T05:34:59.053Z,34.30
2022-11-05T05:37:25.997Z,32.97
2022-11-05T05:39:53.700Z,32.05
2022-11-05T05:42:22.928Z,33.70
2022-11-05T05:44:49.816Z,32.38
2022-11-05T05:47:16.640Z,33.50
2022-11-05T05:49:43.438Z,30.85
2022-11-05T05:52:10.324Z,29.95
2022-11-05T05:54:42.255Z,32.40
2022-11-05T05:57:10.063Z,29.75
2022-11-05T05:59:36.985Z,29.27
2022-11-05T06:02:03.908Z,28.88
2022-11-05T06:04:30.871Z,28.90
2022-11-05T06:06:57.681Z,28.50
2022-11-05T06:09:24.976Z,28.52
2022-11-05T06:11:51.709Z,28.02
2022-11-05T06:14:18.632Z,31.05
2022-11-05T06:16:48.087Z,29.50
2022-11-05T06:19:14.979Z,27.83
2022-11-05T06:21:41.882Z,28.52
2022-11-05T06:24:09.147Z,24.63
2022-11-05T06:26:36.007Z,27.98
2022-11-05T06:29:02.954Z,25.20
2022-11-05T06:31:30.843Z,25.02
2022-11-05T06:33:57.698Z,26.08
2022-11-05T06:36:24.511Z,27.33
2022-11-05T06:38:51.292Z,26.38
2022-11-05T06:41:18.141Z,25.60
2022-11-05T06:43:45.046Z,27.08
2022-11-05T06:46:12.136Z,23.90
2022-11-05T06:48:39.488Z,26.05
2022-11-05T06:51:08.276Z,25.67
2022-11-05T06:53:36.029Z,22.85
2022-11-05T06:56:07.674Z,22.85
2022-11-05T06:58:34.962Z,25.00
2022-11-05T07:01:06.010Z,23.20
2022-11-05T07:03:32.912Z,23.55
2022-11-05T07:06:04.410Z,22.08
2022-11-05T07:08:32.685Z,20.48
2022-11-05T07:11:00.231Z,20.80
2022-11-05T07:13:27.530Z,19.25
2022-11-05T07:15:54.631Z,20.67
2022-11-05T07:18:22.043Z,24.95
2022-11-05T07:20:49.492Z,19.27
2022-11-05T07:23:17.189Z,20.65
2022-11-05T07:25:44.305Z,21.23
2022-11-05T07:28:11.834Z,22.33
2022-11-05T07:30:38.731Z,20.05
2022-11-05T07:33:05.587Z,20.02
2022-11-05T07:35:32.467Z,20.10
2022-11-05T07:37:59.326Z,21.45
2022-11-05T07:40:28.378Z,21.08
2022-11-05T07:42:57.843Z,20.23
2022-11-05T07:45:26.383Z,20.98
2022-11-05T07:48:01.368Z,22.98
2022-11-05T07:50:36.612Z,21.30
2022-11-05T07:53:14.826Z,21.05
2022-11-05T07:55:42.241Z,20.48
2022-11-05T07:58:09.910Z,20.35
2022-11-05T08:00:36.878Z,21.10
2022-11-05T08:03:16.323Z,22.27
2022-11-05T08:05:46.272Z,21.83
2022-11-05T08:08:16.126Z,24.85
2022-11-05T08:10:43.133Z,19.88
2022-11-05T08:13:12.072Z,21.20
2022-11-05T08:15:39.703Z,19.15
2022-11-05T08:18:10.812Z,21.08
2022-11-05T08:20:38.646Z,20.65
2022-11-05T08:23:05.955Z,19.98
2022-11-05T08:25:33.406Z,21.00
2022-11-05T08:28:02.558Z,20.70
2022-11-05T08:30:30.952Z,21.17
2022-11-05T08:33:00.194Z,21.48
2022-11-05T08:35:27.944Z,19.20
2022-11-05T08:37:59.403Z,23.67
2022-11-05T08:40:27.061Z,22.83
2022-11-05T08:42:57.692Z,20.20
2022-11-05T08:45:28.264Z,21.05
2022-11-05T08:48:07.073Z,20.40
2022-11-05T08:50:34.907Z,20.70
2022-11-05T08:53:01.870Z,20.27
2022-11-05T08:55:28.901Z,21.70
2022-11-05T08:58:01.749Z,20.17
2022-11-05T09:00:31.001Z,21.07
2022-11-05T09:03:02.908Z,19.60
2022-11-05T09:05:30.969Z,21.63
2022-11-05T09:08:01.378Z,20.48
2022-11-05T09:10:28.738Z,21.85
2022-11-05T09:12:55.722Z,23.00
2022-11-05T09:15:23.499Z,22.08
2022-11-05T09:17:50.876Z,22.00
2022-11-05T09:20:17.869Z,21.33
2022-11-05T09:22:46.333Z,22.02
2022-11-05T09:25:15.330Z,22.15
2022-11-05T09:27:42.942Z,23.20
2022-11-05T09:30:10.754Z,20.67
2022-11-05T09:32:38.064Z,22.70
2022-11-05T09:35:05.481Z,22.10
2022-11-05T09:37:32.665Z,19.83
2022-11-05T09:39:59.553Z,20.63
2022-11-05T09:42:33.129Z,21.55
2022-11-05T09:47:34.785Z,19.98
2022-11-05T09:50:06.851Z,18.20
2022-11-05T09:52:34.639Z,20.70
2022-11-05T09:55:06.578Z,18.05
2022-11-05T09:57:44.270Z,19.75
2022-11-05T10:00:18.409Z,18.17
2022-11-05T10:02:56.502Z,17.98
2022-11-05T10:05:27.681Z,18.17
2022-11-05T10:07:59.506Z,17.02
2022-11-05T10:10:26.379Z,17.58
2022-11-05T10:12:57.429Z,17.45
2022-11-05T10:15:34.687Z,17.63
2022-11-05T10:18:15.393Z,17.58
2022-11-05T10:20:43.179Z,16.55
2022-11-05T10:23:12.870Z,18.73
2022-11-05T10:25:44.451Z,16.50
2022-11-05T10:28:19.867Z,18.17
2022-11-05T10:30:49.758Z,18.92
2022-11-05T10:33:24.897Z,17.42
2022-11-05T10:35:55.801Z,16.67
2022-11-05T10:38:22.641Z,18.80
2022-11-05T10:41:02.309Z,18.70
2022-11-05T10:43:54.127Z,17.55
2022-11-05T10:46:23.872Z,17.95
2022-11-05T10:49:32.685Z,18.13
2022-11-05T10:52:06.065Z,18.38
2022-11-05T10:54:35.367Z,16.95
2022-11-05T10:57:27.725Z,17.67
2022-11-05T11:00:19.468Z,19.42
2022-11-05T11:02:50.091Z,19.00
2022-11-05T11:05:36.267Z,19.20
2022-11-05T11:08:11.423Z,18.10
2022-11-05T11:10:57.558Z,17.92
2022-11-05T11:13:47.958Z,17.35
2022-11-05T11:16:26.723Z,18.00
2022-11-05T11:18:54.639Z,17.92
2022-11-05T11:21:26.425Z,17.38
2022-11-05T11:24:07.053Z,17.80
2022-11-05T11:26:37.340Z,16.23
2022-11-05T11:29:44.004Z,16.17
2022-11-05T11:32:18.793Z,16.00
2022-11-05T11:34:49.909Z,14.95
2022-11-05T11:37:33.115Z,15.00
2022-11-05T11:40:17.086Z,15.88
2022-11-05T11:42:56.808Z,15.13
2022-11-05T11:45:47.049Z,15.70
2022-11-05T11:48:21.801Z,16.00
2022-11-05T11:50:49.718Z,17.80
2022-11-05T11:53:22.224Z,17.92
2022-11-05T11:55:55.067Z,17.80
2022-11-05T11:58:23.822Z,16.97
2022-11-05T12:01:03.954Z,18.25
2022-11-05T12:03:45.914Z,19.02
2022-11-05T12:06:30.409Z,19.10
2022-11-05T12:09:13.089Z,19.60
2022-11-05T12:11:50.858Z,20.90
2022-11-05T12:14:17.698Z,19.15
2022-11-05T12:16:45.840Z,19.15
2022-11-05T12:19:45.791Z,21.73
2022-11-05T12:22:30.634Z,21.70
2022-11-05T12:25:09.237Z,19.42
2022-11-05T12:27:36.020Z,21.58
2022-11-05T12:30:08.824Z,23.73
2022-11-05T12:32:54.393Z,22.95
2022-11-05T12:35:23.986Z,22.92
2022-11-05T12:38:23.401Z,21.35
2022-11-05T12:41:32.541Z,21.40
2022-11-05T12:44:20.117Z,22.40
2022-11-05T12:47:01.949Z,22.83
2022-11-05T12:49:54.506Z,21.50
2022-11-05T12:52:52.099Z,22.02
2022-11-05T12:55:25.729Z,20.38
2022-11-05T12:57:57.275Z,19.13
2022-11-05T13:00:26.541Z,20.48
2022-11-05T13:03:24.090Z,17.65
2022-11-05T13:06:01.458Z,20.17
2022-11-05T13:08:52.390Z,19.75
2022-11-05T13:11:44.693Z,18.25
2022-11-05T13:14:20.213Z,19.17
2022-11-05T13:16:51.432Z,19.35
2022-11-05T13:19:37.657Z,19.30
2022-11-05T13:22:22.056Z,19.48
2022-11-05T13:27:59.696Z,19.75
2022-11-05T13:30:37.677Z,19.73
2022-11-05T13:33:15.588Z,17.55
2022-11-05T13:36:21.944Z,19.38
2022-11-05T13:39:07.224Z,19.73
2022-11-05T13:41:57.406Z,21.50
2022-11-05T13:44:26.939Z,19.05
2022-11-05T13:46:53.738Z,18.30
2022-11-05T13:49:32.589Z,20.35
2022-11-05T13:52:36.582Z,20.55
2022-11-05T13:55:18.594Z,21.15
2022-11-05T13:57:53.279Z,20.70
2022-11-05T14:00:29.223Z,20.17
2022-11-05T14:03:06.413Z,19.83
2022-11-05T14:05:39.469Z,20.55
2022-11-05T14:08:18.791Z,18.02
2022-11-05T14:10:58.401Z,20.83
2022-11-05T14:13:44.038Z,19.75
2022-11-05T14:16:19.571Z,20.27
2022-11-05T14:19:06.479Z,17.63
2022-11-05T14:21:47.560Z,19.58
2022-11-05T14:24:23.270Z,19.15
2022-11-05T14:27:02.220Z,20.60
2022-11-05T14:29:42.338Z,18.77
2022-11-05T14:32:21.232Z,18.70
2022-11-05T14:34:49.518Z,21.65
2022-11-05T14:37:23.936Z,23.88
2022-11-05T14:39:51.406Z,23.00
2022-11-05T14:42:29.646Z,22.05
2022-11-05T14:45:05.606Z,22.85
2022-11-05T14:47:37.553Z,25.05
2022-11-05T14:50:22.095Z,24.25
2022-11-05T14:52:57.573Z,26.90
2022-11-05T14:55:29.691Z,24.30
2022-11-05T14:57:56.526Z,23.95
2022-11-05T15:00:29.174Z,25.88
2022-11-05T15:03:23.910Z,28.13
2022-11-05T15:08:37.376Z,29.33
2022-11-05T15:27:37.837Z,30.58
2022-11-05T15:30:20.183Z,31.48
2022-11-05T15:32:47.235Z,32.28
2022-11-05T15:35:29.210Z,30.85
2022-11-05T15:38:02.006Z,28.17
2022-11-05T15:40:33.446Z,27.23
2022-11-05T15:43:17.735Z,27.85
2022-11-05T15:46:00.114Z,26.77
2022-11-05T15:48:27.004Z,23.67
2022-11-05T15:50:54.042Z,25.63
2022-11-05T15:53:56.053Z,26.23
2022-11-05T15:56:23.362Z,26.45
2022-11-05T15:58:53.771Z,26.25
2022-11-05T16:01:29.272Z,26.73
2022-11-05T16:04:17.322Z,30.08
2022-11-05T16:06:47.790Z,27.98
2022-11-05T16:09:26.199Z,28.08
2022-11-05T16:12:18.493Z,28.02
2022-11-05T16:15:00.091Z,29.83
2022-11-05T16:17:30.118Z,28.90
2022-11-05T16:19:57.649Z,27.90
2022-11-05T16:22:25.510Z,29.77
2022-11-05T16:24:52.420Z,28.27
2022-11-05T16:27:22.551Z,28.25
2022-11-05T16:29:57.447Z,27.08
2022-11-05T16:32:29.684Z,29.50
2022-11-05T16:35:00.221Z,30.20
2022-11-05T16:37:29.488Z,28.55
2022-11-05T16:39:56.471Z,31.40
2022-11-05T16:42:23.252Z,29.48
2022-11-05T16:44:55.314Z,28.38
2022-11-05T16:47:22.792Z,30.23
2022-11-05T16:49:50.617Z,29.45
2022-11-05T16:52:17.860Z,31.52
2022-11-05T16:54:45.447Z,32.80
2022-11-05T16:57:21.436Z,29.60
2022-11-05T16:59:48.309Z,29.85
2022-11-05T17:02:15.411Z,30.55
2022-11-05T17:04:42.284Z,30.77
2022-11-05T17:07:09.119Z,31.48
2022-11-05T17:09:35.942Z,32.80
2022-11-05T17:12:03.032Z,30.05
2022-11-05T17:14:29.870Z,31.17
2022-11-05T17:16:56.687Z,29.45
2022-11-05T17:19:23.500Z,29.80
2022-11-05T17:21:50.544Z,34.53
2022-11-05T17:24:17.442Z,33.20
2022-11-05T17:26:44.326Z,33.38
2022-11-05T17:29:11.346Z,34.35
2022-11-05T17:31:40.653Z,29.55
2022-11-05T17:34:08.652Z,31.20
2022-11-05T17:36:35.522Z,30.63
2022-11-05T17:39:02.450Z,26.65
2022-11-05T17:41:29.338Z,30.10
2022-11-05T17:43:57.656Z,32.30
2022-11-05T17:46:25.010Z,35.53
2022-11-05T17:48:51.794Z,35.22
2022-11-05T17:51:19.900Z,35.22
2022-11-05T17:53:49.156Z,33.03
2022-11-05T17:56:32.210Z,33.80
2022-11-05T17:59:01.466Z,31.65
2022-11-05T18:01:31.254Z,33.05
2022-11-05T18:03:59.536Z,31.95
2022-11-05T18:06:28.198Z,33.45
2022-11-05T18:08:55.069Z,32.65
2022-11-05T18:11:21.868Z,37.63
2022-11-05T18:13:48.712Z,33.53
2022-11-05T18:16:15.652Z,36.47
2022-11-05T18:18:42.547Z,34.45
2022-11-05T18:21:09.322Z,37.60
2022-11-05T18:23:36.196Z,36.40
2022-11-05T18:26:11.482Z,37.15
2022-11-05T18:28:38.749Z,35.67
2022-11-05T18:31:15.290Z,37.42
2022-11-05T18:33:44.895Z,37.83
2022-11-05T18:36:19.442Z,38.72
2022-11-05T18:38:46.842Z,38.72
2022-11-05T18:41:14.222Z,39.75
2022-11-05T18:43:41.606Z,36.33
2022-11-05T18:46:08.898Z,37.88
2022-11-05T18:48:36.165Z,40.65
2022-11-05T18:51:14.892Z,43.25
2022-11-05T18:53:42.329Z,41.30
2022-11-05T18:56:18.519Z,38.17
2022-11-05T18:58:45.830Z,41.40
2022-11-05T19:01:15.124Z,39.20
2022-11-05T19:03:42.355Z,40.72
2022-11-05T19:06:09.666Z,41.90
2022-11-05T19:08:37.142Z,45.45
2022-11-05T19:11:24.826Z,44.45
2022-11-05T19:13:52.523Z,41.85
2022-11-05T19:16:25.811Z,44.28
2022-11-05T19:18:53.107Z,45.90
2022-11-05T19:21:22.793Z,45.88
2022-11-05T19:23:50.117Z,43.35
2022-11-05T19:26:23.025Z,44.60
2022-11-05T19:28:54.206Z,46.75
2022-11-05T19:31:23.715Z,46.05
2022-11-05T19:33:52.023Z,46.22
2022-11-05T19:36:20.783Z,45.33
2022-11-05T19:38:49.696Z,44.78
2022-11-05T19:41:19.743Z,50.00
2022-11-05T19:43:46.860Z,58.50
2022-11-05T19:46:19.336Z,48.28
2022-11-05T19:48:46.896Z,51.13
2022-11-05T19:51:17.090Z,48.70
2022-11-05T19:53:44.270Z,46.33
2022-11-05T19:56:14.177Z,45.47
2022-11-05T19:58:41.795Z,46.85
2022-11-05T20:01:09.816Z,44.75
2022-11-05T20:03:37.862Z,44.45
2022-11-05T20:06:10.143Z,49.40
2022-11-05T20:08:53.067Z,46.97
2022-11-05T20:11:24.012Z,44.08
2022-11-05T20:13:51.005Z,44.33
2022-11-05T20:16:29.658Z,45.13
2022-11-05T20:18:57.452Z,48.25
2022-11-05T20:21:24.254Z,46.03
2022-11-05T20:23:51.134Z,43.30
2022-11-05T20:26:18.125Z,44.03
2022-11-05T20:28:45.721Z,46.10
2022-11-05T20:31:15.241Z,45.28
2022-11-05T20:33:43.152Z,47.28
2022-11-05T20:36:16.441Z,46.15
2022-11-05T20:38:44.802Z,46.47
2022-11-05T20:41:12.842Z,44.33
2022-11-05T20:43:44.114Z,43.97
2022-11-05T20:46:14.730Z,43.92
2022-11-05T20:48:42.304Z,40.88
2022-11-05T20:51:14.685Z,40.25
2022-11-05T20:53:42.095Z,42.97
2022-11-05T20:56:09.569Z,44.25
2022-11-05T20:58:37.834Z,44.58
2022-11-05T21:01:05.832Z,45.05
2022-11-05T21:03:32.710Z,45.60
2022-11-05T21:06:04.580Z,43.15
2022-11-05T21:08:32.587Z,39.55
2022-11-05T21:10:59.814Z,45.47
2022-11-05T21:13:27.628Z,45.97
2022-11-05T21:15:57.974Z,43.25
2022-11-05T21:18:30.689Z,44.25
2022-11-05T21:20:58.052Z,40.47
2022-11-05T21:23:24.929Z,40.78
2022-11-05T21:25:51.756Z,41.85
2022-11-05T21:28:18.639Z,41.67
2022-11-05T21:30:46.611Z,41.78
2022-11-05T21:33:14.778Z,39.60
2022-11-05T21:35:47.017Z,40.42
2022-11-05T21:38:16.203Z,37.65
2022-11-05T21:40:43.390Z,41.15
2022-11-05T21:43:10.967Z,38.67
2022-11-05T21:45:39.891Z,41.13
2022-11-05T21:48:07.604Z,39.97
2022-11-05T21:50:53.864Z,41.50
2022-11-05T21:53:39.139Z,42.00
2022-11-05T21:56:26.560Z,40.90
2022-11-05T21:59:11.972Z,39.15
2022-11-05T22:01:38.981Z,41.65
2022-11-05T22:04:05.882Z,44.30
2022-11-05T22:06:33.432Z,195.63
2022-11-05T22:09:00.379Z,124.55
2022-11-05T22:11:27.297Z,47.97
2022-11-05T22:13:54.169Z,43.05
2022-11-05T22:16:21.006Z,46.03
2022-11-05T22:18:47.962Z,41.40
2022-11-05T22:21:19.134Z,39.97
2022-11-05T22:23:46.212Z,41.83
2022-11-05T22:26:13.061Z,44.45
2022-11-05T22:28:39.841Z,47.38
2022-11-05T22:31:17.218Z,45.35
2022-11-05T22:33:44.502Z,45.80
2022-11-05T22:36:11.753Z,42.88
2022-11-05T22:38:39.495Z,50.83
2022-11-05T22:41:08.195Z,46.45
2022-11-05T22:43:35.243Z,45.28
2022-11-05T22:46:07.024Z,44.92
2022-11-05T22:48:36.218Z,42.42
2022-11-05T22:51:05.476Z,41.95
2022-11-05T22:53:34.153Z,41.42
2022-11-05T22:56:12.357Z,43.15
2022-11-05T22:58:39.335Z,40.70
2022-11-05T23:01:08.273Z,43.72
2022-11-05T23:03:35.603Z,40.78
2022-11-05T23:06:04.734Z,42.13
2022-11-05T23:08:50.679Z,44.42
2022-11-05T23:11:41.274Z,44.58
2022-11-05T23:14:10.724Z,41.42
2022-11-05T23:16:56.711Z,42.63
2022-11-05T23:19:42.373Z,43.13
2022-11-05T23:22:33.399Z,42.30
2022-11-05T23:25:00.220Z,40.95
2022-11-05T23:27:32.696Z,43.20
2022-11-05T23:30:01.195Z,50.20
2022-11-05T23:32:30.622Z,41.42
2022-11-05T23:34:58.958Z,38.90
2022-11-05T23:37:48.460Z,39.05
2022-11-05T23:40:21.455Z,38.90
2022-11-05T23:43:07.445Z,41.72
2022-11-05T23:45:55.137Z,39.55
2022-11-05T23:48:33.060Z,38.80
2022-11-05T23:51:06.582Z,36.28
2022-11-05T23:53:36.118Z,40.63
2022-11-05T23:56:08.825Z,37.85
2022-11-05T23:58:36.998Z,50.75
